sensor_id;sensor_type;location;lat;lon;timestamp;temperature;humidity
18613;DHT22;9436;52.152;21.032;2022-08-01T00:00:19;16.70;99.90
18613;DHT22;9436;52.152;21.032;2022-08-01T00:02:46;16.80;99.90
18613;DHT22;9436;52.152;21.032;2022-08-01T00:05:13;16.70;99.90
18613;DHT22;9436;52.152;21.032;2022-08-01T00:07:40;16.80;99.90
18613;DHT22;9436;52.152;21.032;2022-08-01T00:10:09;16.80;99.90
18613;DHT22;9436;52.152;21.032;2022-08-01T00:12:37;16.80;99.90
18613;DHT22;9436;52.152;21.032;2022-08-01T00:15:07;16.70;99.90
18613;DHT22;9436;52.152;21.032;2022-08-01T00:17:34;16.70;99.90
18613;DHT22;9436;52.152;21.032;2022-08-01T00:20:03;16.60;99.90
18613;DHT22;9436;52.152;21.032;2022-08-01T00:22:31;16.60;99.90
18613;DHT22;9436;52.152;21.032;2022-08-01T00:24:58;16.60;99.90
18613;DHT22;9436;52.152;21.032;2022-08-01T00:27:25;16.60;99.90
18613;DHT22;9436;52.152;21.032;2022-08-01T00:29:52;16.60;99.90
18613;DHT22;9436;52.152;21.032;2022-08-01T00:32:20;16.60;99.90
18613;DHT22;9436;52.152;21.032;2022-08-01T00:34:47;16.70;99.90
18613;DHT22;9436;52.152;21.032;2022-08-01T00:37:14;16.60;99.90
18613;DHT22;9436;52.152;21.032;2022-08-01T00:39:42;16.60;99.90
18613;DHT22;9436;52.152;21.032;2022-08-01T00:42:11;16.50;99.90
18613;DHT22;9436;52.152;21.032;2022-08-01T00:44:39;16.50;99.90
18613;DHT22;9436;52.152;21.032;2022-08-01T00:47:06;16.60;99.90
18613;DHT22;9436;52.152;21.032;2022-08-01T00:49:35;16.50;99.90
18613;DHT22;9436;52.152;21.032;2022-08-01T00:52:03;16.60;99.90
18613;DHT22;9436;52.152;21.032;2022-08-01T00:54:32;16.60;99.90
18613;DHT22;9436;52.152;21.032;2022-08-01T00:56:59;16.60;99.90
18613;DHT22;9436;52.152;21.032;2022-08-01T00:59:26;16.60;99.90
18613;DHT22;9436;52.152;21.032;2022-08-01T01:01:53;16.60;99.90
18613;DHT22;9436;52.152;21.032;2022-08-01T01:04:20;16.60;99.90
18613;DHT22;9436;52.152;21.032;2022-08-01T01:06:54;16.60;99.90
18613;DHT22;9436;52.152;21.032;2022-08-01T01:09:31;16.50;99.90
18613;DHT22;9436;52.152;21.032;2022-08-01T01:12:04;16.50;99.90
18613;DHT22;9436;52.152;21.032;2022-08-01T01:14:39;16.60;99.90
18613;DHT22;9436;52.152;21.032;2022-08-01T01:17:13;16.50;99.90
18613;DHT22;9436;52.152;21.032;2022-08-01T01:19:45;16.60;99.90
18613;DHT22;9436;52.152;21.032;2022-08-01T01:22:27;16.60;99.90
18613;DHT22;9436;52.152;21.032;2022-08-01T01:25:25;16.60;99.90
18613;DHT22;9436;52.152;21.032;2022-08-01T01:28:02;16.60;99.90
18613;DHT22;9436;52.152;21.032;2022-08-01T01:30:37;16.60;99.90
18613;DHT22;9436;52.152;21.032;2022-08-01T01:33:07;16.60;99.90
18613;DHT22;9436;52.152;21.032;2022-08-01T01:35:38;16.60;99.90
18613;DHT22;9436;52.152;21.032;2022-08-01T01:38:10;16.60;99.90
18613;DHT22;9436;52.152;21.032;2022-08-01T01:40:39;16.50;99.90
18613;DHT22;9436;52.152;21.032;2022-08-01T01:43:09;16.60;99.90
18613;DHT22;9436;52.152;21.032;2022-08-01T01:45:39;16.60;99.90
18613;DHT22;9436;52.152;21.032;2022-08-01T01:48:07;16.50;99.90
18613;DHT22;9436;52.152;21.032;2022-08-01T01:50:36;16.50;99.90
18613;DHT22;9436;52.152;21.032;2022-08-01T01:53:04;16.50;99.90
18613;DHT22;9436;52.152;21.032;2022-08-01T01:55:32;16.50;99.90
18613;DHT22;9436;52.152;21.032;2022-08-01T01:58:01;16.40;99.90
18613;DHT22;9436;52.152;21.032;2022-08-01T02:00:31;16.40;99.90
18613;DHT22;9436;52.152;21.032;2022-08-01T02:03:02;16.40;99.90
18613;DHT22;9436;52.152;21.032;2022-08-01T02:05:31;16.40;99.90
18613;DHT22;9436;52.152;21.032;2022-08-01T02:08:01;16.30;99.90
18613;DHT22;9436;52.152;21.032;2022-08-01T02:10:29;16.30;99.90
18613;DHT22;9436;52.152;21.032;2022-08-01T02:12:59;16.20;99.90
18613;DHT22;9436;52.152;21.032;2022-08-01T02:15:30;16.20;99.90
18613;DHT22;9436;52.152;21.032;2022-08-01T02:17:59;16.20;99.90
18613;DHT22;9436;52.152;21.032;2022-08-01T02:20:29;16.10;99.90
18613;DHT22;9436;52.152;21.032;2022-08-01T02:23:01;16.10;99.90
18613;DHT22;9436;52.152;21.032;2022-08-01T02:25:36;16.00;99.90
18613;DHT22;9436;52.152;21.032;2022-08-01T02:28:07;16.00;99.90
18613;DHT22;9436;52.152;21.032;2022-08-01T02:30:38;16.00;99.90
18613;DHT22;9436;52.152;21.032;2022-08-01T02:33:11;15.90;99.90
18613;DHT22;9436;52.152;21.032;2022-08-01T02:35:41;16.00;99.90
18613;DHT22;9436;52.152;21.032;2022-08-01T02:38:10;15.80;99.90
18613;DHT22;9436;52.152;21.032;2022-08-01T02:40:40;15.80;99.90
18613;DHT22;9436;52.152;21.032;2022-08-01T02:43:10;15.80;99.90
18613;DHT22;9436;52.152;21.032;2022-08-01T02:45:43;15.80;99.90
18613;DHT22;9436;52.152;21.032;2022-08-01T02:48:15;15.70;99.90
18613;DHT22;9436;52.152;21.032;2022-08-01T02:50:47;15.70;99.90
18613;DHT22;9436;52.152;21.032;2022-08-01T02:53:18;15.60;99.90
18613;DHT22;9436;52.152;21.032;2022-08-01T02:55:46;15.50;99.90
18613;DHT22;9436;52.152;21.032;2022-08-01T02:58:15;15.50;99.90
18613;DHT22;9436;52.152;21.032;2022-08-01T03:00:43;15.50;99.90
18613;DHT22;9436;52.152;21.032;2022-08-01T03:03:14;15.50;99.90
18613;DHT22;9436;52.152;21.032;2022-08-01T03:05:43;15.40;99.90
18613;DHT22;9436;52.152;21.032;2022-08-01T03:08:11;15.50;99.90
18613;DHT22;9436;52.152;21.032;2022-08-01T03:10:40;15.40;99.90
18613;DHT22;9436;52.152;21.032;2022-08-01T03:13:09;15.30;99.90
18613;DHT22;9436;52.152;21.032;2022-08-01T03:15:39;15.40;99.90
18613;DHT22;9436;52.152;21.032;2022-08-01T03:18:07;15.40;99.90
18613;DHT22;9436;52.152;21.032;2022-08-01T03:20:36;15.40;99.90
18613;DHT22;9436;52.152;21.032;2022-08-01T03:23:06;15.30;99.90
18613;DHT22;9436;52.152;21.032;2022-08-01T03:25:38;15.30;99.90
18613;DHT22;9436;52.152;21.032;2022-08-01T03:28:07;15.30;99.90
18613;DHT22;9436;52.152;21.032;2022-08-01T03:30:36;15.40;99.90
18613;DHT22;9436;52.152;21.032;2022-08-01T03:33:05;15.40;99.90
18613;DHT22;9436;52.152;21.032;2022-08-01T03:35:36;15.40;99.90
18613;DHT22;9436;52.152;21.032;2022-08-01T03:38:05;15.50;99.90
18613;DHT22;9436;52.152;21.032;2022-08-01T03:40:38;15.40;99.90
18613;DHT22;9436;52.152;21.032;2022-08-01T03:43:08;15.50;99.90
18613;DHT22;9436;52.152;21.032;2022-08-01T03:45:39;15.50;99.90
18613;DHT22;9436;52.152;21.032;2022-08-01T03:48:11;15.50;99.90
18613;DHT22;9436;52.152;21.032;2022-08-01T03:50:43;15.40;99.90
18613;DHT22;9436;52.152;21.032;2022-08-01T03:53:10;15.50;99.90
18613;DHT22;9436;52.152;21.032;2022-08-01T03:55:39;15.50;99.90
18613;DHT22;9436;52.152;21.032;2022-08-01T03:58:08;15.50;99.90
18613;DHT22;9436;52.152;21.032;2022-08-01T04:00:36;15.50;99.90
18613;DHT22;9436;52.152;21.032;2022-08-01T04:03:05;15.40;99.90
18613;DHT22;9436;52.152;21.032;2022-08-01T04:05:33;15.50;99.90
18613;DHT22;9436;52.152;21.032;2022-08-01T04:08:02;15.60;99.90
18613;DHT22;9436;52.152;21.032;2022-08-01T04:10:29;15.50;99.90
18613;DHT22;9436;52.152;21.032;2022-08-01T04:12:56;15.60;99.90
18613;DHT22;9436;52.152;21.032;2022-08-01T04:15:23;15.60;99.90
18613;DHT22;9436;52.152;21.032;2022-08-01T04:17:50;15.60;99.90
18613;DHT22;9436;52.152;21.032;2022-08-01T04:20:17;15.70;99.90
18613;DHT22;9436;52.152;21.032;2022-08-01T04:22:44;15.70;99.90
18613;DHT22;9436;52.152;21.032;2022-08-01T04:25:15;15.80;99.90
18613;DHT22;9436;52.152;21.032;2022-08-01T04:27:48;15.80;99.90
18613;DHT22;9436;52.152;21.032;2022-08-01T04:30:16;15.80;99.90
18613;DHT22;9436;52.152;21.032;2022-08-01T04:32:45;15.90;99.90
18613;DHT22;9436;52.152;21.032;2022-08-01T04:35:14;16.00;99.90
18613;DHT22;9436;52.152;21.032;2022-08-01T04:37:44;16.00;99.90
18613;DHT22;9436;52.152;21.032;2022-08-01T04:40:16;16.10;99.90
18613;DHT22;9436;52.152;21.032;2022-08-01T04:42:43;16.10;99.90
18613;DHT22;9436;52.152;21.032;2022-08-01T04:45:11;16.10;99.90
18613;DHT22;9436;52.152;21.032;2022-08-01T04:47:39;16.20;99.90
18613;DHT22;9436;52.152;21.032;2022-08-01T04:50:09;16.00;99.90
18613;DHT22;9436;52.152;21.032;2022-08-01T04:52:37;16.00;99.90
18613;DHT22;9436;52.152;21.032;2022-08-01T04:55:08;16.00;99.90
18613;DHT22;9436;52.152;21.032;2022-08-01T04:57:40;16.10;99.90
18613;DHT22;9436;52.152;21.032;2022-08-01T05:00:09;16.10;99.90
18613;DHT22;9436;52.152;21.032;2022-08-01T05:02:36;16.10;99.90
18613;DHT22;9436;52.152;21.032;2022-08-01T05:05:04;16.20;99.90
18613;DHT22;9436;52.152;21.032;2022-08-01T05:07:32;16.10;99.90
18613;DHT22;9436;52.152;21.032;2022-08-01T05:10:02;16.20;99.90
18613;DHT22;9436;52.152;21.032;2022-08-01T05:12:29;16.20;99.90
18613;DHT22;9436;52.152;21.032;2022-08-01T05:14:58;16.20;99.90
18613;DHT22;9436;52.152;21.032;2022-08-01T05:17:25;16.20;99.90
18613;DHT22;9436;52.152;21.032;2022-08-01T05:19:52;16.30;99.90
18613;DHT22;9436;52.152;21.032;2022-08-01T05:22:19;16.30;99.90
18613;DHT22;9436;52.152;21.032;2022-08-01T05:24:48;16.30;99.90
18613;DHT22;9436;52.152;21.032;2022-08-01T05:27:14;16.20;99.90
18613;DHT22;9436;52.152;21.032;2022-08-01T05:29:41;16.20;99.90
18613;DHT22;9436;52.152;21.032;2022-08-01T05:32:10;16.20;99.90
18613;DHT22;9436;52.152;21.032;2022-08-01T05:34:37;16.20;99.90
18613;DHT22;9436;52.152;21.032;2022-08-01T05:37:04;16.20;99.90
18613;DHT22;9436;52.152;21.032;2022-08-01T05:39:31;16.20;99.90
18613;DHT22;9436;52.152;21.032;2022-08-01T05:41:58;16.30;99.90
18613;DHT22;9436;52.152;21.032;2022-08-01T05:44:25;16.50;99.90
18613;DHT22;9436;52.152;21.032;2022-08-01T05:46:52;16.60;99.90
18613;DHT22;9436;52.152;21.032;2022-08-01T05:49:20;16.70;99.90
18613;DHT22;9436;52.152;21.032;2022-08-01T05:51:47;16.80;99.90
18613;DHT22;9436;52.152;21.032;2022-08-01T05:54:14;16.80;99.90
18613;DHT22;9436;52.152;21.032;2022-08-01T05:56:41;16.90;99.90
18613;DHT22;9436;52.152;21.032;2022-08-01T05:59:08;17.00;99.90
18613;DHT22;9436;52.152;21.032;2022-08-01T06:01:35;17.10;99.90
18613;DHT22;9436;52.152;21.032;2022-08-01T06:04:02;17.10;99.90
18613;DHT22;9436;52.152;21.032;2022-08-01T06:06:31;17.20;99.90
18613;DHT22;9436;52.152;21.032;2022-08-01T06:08:58;17.20;99.90
18613;DHT22;9436;52.152;21.032;2022-08-01T06:11:25;17.30;99.90
18613;DHT22;9436;52.152;21.032;2022-08-01T06:13:51;17.20;99.90
18613;DHT22;9436;52.152;21.032;2022-08-01T06:16:19;17.30;99.90
18613;DHT22;9436;52.152;21.032;2022-08-01T06:18:46;17.40;99.90
18613;DHT22;9436;52.152;21.032;2022-08-01T06:21:13;17.50;99.90
18613;DHT22;9436;52.152;21.032;2022-08-01T06:23:41;17.80;99.90
18613;DHT22;9436;52.152;21.032;2022-08-01T06:26:08;17.90;99.90
18613;DHT22;9436;52.152;21.032;2022-08-01T06:28:36;17.90;99.90
18613;DHT22;9436;52.152;21.032;2022-08-01T06:31:03;18.00;99.90
18613;DHT22;9436;52.152;21.032;2022-08-01T06:33:30;18.10;99.90
18613;DHT22;9436;52.152;21.032;2022-08-01T06:35:57;18.30;99.90
18613;DHT22;9436;52.152;21.032;2022-08-01T06:38:24;18.40;99.90
18613;DHT22;9436;52.152;21.032;2022-08-01T06:40:52;18.40;99.90
18613;DHT22;9436;52.152;21.032;2022-08-01T06:43:19;18.50;99.90
18613;DHT22;9436;52.152;21.032;2022-08-01T06:45:46;18.70;99.90
18613;DHT22;9436;52.152;21.032;2022-08-01T06:48:14;18.80;99.90
18613;DHT22;9436;52.152;21.032;2022-08-01T06:50:41;18.80;99.90
18613;DHT22;9436;52.152;21.032;2022-08-01T06:53:08;19.00;99.90
18613;DHT22;9436;52.152;21.032;2022-08-01T06:55:35;19.00;99.90
18613;DHT22;9436;52.152;21.032;2022-08-01T06:58:04;19.10;99.90
18613;DHT22;9436;52.152;21.032;2022-08-01T07:00:31;19.10;99.90
18613;DHT22;9436;52.152;21.032;2022-08-01T07:02:58;19.10;99.90
18613;DHT22;9436;52.152;21.032;2022-08-01T07:05:25;19.00;99.90
18613;DHT22;9436;52.152;21.032;2022-08-01T07:07:53;18.80;99.90
18613;DHT22;9436;52.152;21.032;2022-08-01T07:10:20;18.90;99.90
18613;DHT22;9436;52.152;21.032;2022-08-01T07:12:47;19.00;99.90
18613;DHT22;9436;52.152;21.032;2022-08-01T07:15:15;18.90;99.90
18613;DHT22;9436;52.152;21.032;2022-08-01T07:17:42;19.10;99.90
18613;DHT22;9436;52.152;21.032;2022-08-01T07:20:12;19.20;99.90
18613;DHT22;9436;52.152;21.032;2022-08-01T07:22:39;19.20;99.90
18613;DHT22;9436;52.152;21.032;2022-08-01T07:25:07;19.30;99.90
18613;DHT22;9436;52.152;21.032;2022-08-01T07:27:34;19.50;99.90
18613;DHT22;9436;52.152;21.032;2022-08-01T07:30:03;19.60;99.90
18613;DHT22;9436;52.152;21.032;2022-08-01T07:32:31;19.70;99.90
18613;DHT22;9436;52.152;21.032;2022-08-01T07:35:00;19.60;99.90
18613;DHT22;9436;52.152;21.032;2022-08-01T07:37:27;19.80;99.90
18613;DHT22;9436;52.152;21.032;2022-08-01T07:39:54;19.70;99.90
18613;DHT22;9436;52.152;21.032;2022-08-01T07:42:21;19.80;99.90
18613;DHT22;9436;52.152;21.032;2022-08-01T07:44:48;19.80;99.90
18613;DHT22;9436;52.152;21.032;2022-08-01T07:47:15;20.00;99.90
18613;DHT22;9436;52.152;21.032;2022-08-01T07:49:43;20.20;99.90
18613;DHT22;9436;52.152;21.032;2022-08-01T07:52:10;20.20;99.90
18613;DHT22;9436;52.152;21.032;2022-08-01T07:54:37;20.30;99.90
18613;DHT22;9436;52.152;21.032;2022-08-01T07:57:04;20.30;99.90
18613;DHT22;9436;52.152;21.032;2022-08-01T07:59:32;20.30;99.90
18613;DHT22;9436;52.152;21.032;2022-08-01T08:01:59;20.20;99.90
18613;DHT22;9436;52.152;21.032;2022-08-01T08:04:27;20.30;99.90
18613;DHT22;9436;52.152;21.032;2022-08-01T08:06:55;20.30;99.90
18613;DHT22;9436;52.152;21.032;2022-08-01T08:09:22;20.30;99.90
18613;DHT22;9436;52.152;21.032;2022-08-01T08:11:49;20.50;99.90
18613;DHT22;9436;52.152;21.032;2022-08-01T08:14:17;20.50;99.90
18613;DHT22;9436;52.152;21.032;2022-08-01T08:16:44;20.50;99.90
18613;DHT22;9436;52.152;21.032;2022-08-01T08:19:12;20.70;99.90
18613;DHT22;9436;52.152;21.032;2022-08-01T08:21:39;20.60;99.90
18613;DHT22;9436;52.152;21.032;2022-08-01T08:24:09;20.60;99.90
18613;DHT22;9436;52.152;21.032;2022-08-01T08:26:51;20.80;99.90
18613;DHT22;9436;52.152;21.032;2022-08-01T08:29:20;20.60;99.90
18613;DHT22;9436;52.152;21.032;2022-08-01T08:31:48;20.70;99.90
18613;DHT22;9436;52.152;21.032;2022-08-01T08:34:16;20.80;99.90
18613;DHT22;9436;52.152;21.032;2022-08-01T08:36:43;20.90;99.90
18613;DHT22;9436;52.152;21.032;2022-08-01T08:39:11;20.90;99.90
18613;DHT22;9436;52.152;21.032;2022-08-01T08:41:38;20.90;99.90
18613;DHT22;9436;52.152;21.032;2022-08-01T08:44:07;20.90;99.90
18613;DHT22;9436;52.152;21.032;2022-08-01T08:46:40;21.10;99.90
18613;DHT22;9436;52.152;21.032;2022-08-01T08:49:08;21.30;99.90
18613;DHT22;9436;52.152;21.032;2022-08-01T08:51:38;21.40;99.90
18613;DHT22;9436;52.152;21.032;2022-08-01T08:54:06;21.20;99.90
18613;DHT22;9436;52.152;21.032;2022-08-01T08:56:37;21.20;99.90
18613;DHT22;9436;52.152;21.032;2022-08-01T08:59:04;21.20;99.90
18613;DHT22;9436;52.152;21.032;2022-08-01T09:01:32;21.30;99.90
18613;DHT22;9436;52.152;21.032;2022-08-01T09:04:01;21.40;99.90
18613;DHT22;9436;52.152;21.032;2022-08-01T09:06:28;21.60;99.90
18613;DHT22;9436;52.152;21.032;2022-08-01T09:08:55;21.60;99.90
18613;DHT22;9436;52.152;21.032;2022-08-01T09:11:22;21.50;99.90
18613;DHT22;9436;52.152;21.032;2022-08-01T09:14:04;21.60;99.90
18613;DHT22;9436;52.152;21.032;2022-08-01T09:16:32;21.60;99.90
18613;DHT22;9436;52.152;21.032;2022-08-01T09:19:07;21.70;99.90
18613;DHT22;9436;52.152;21.032;2022-08-01T09:21:35;22.00;99.90
18613;DHT22;9436;52.152;21.032;2022-08-01T09:24:03;22.10;99.90
18613;DHT22;9436;52.152;21.032;2022-08-01T09:26:34;22.20;99.90
18613;DHT22;9436;52.152;21.032;2022-08-01T09:29:05;22.10;99.90
18613;DHT22;9436;52.152;21.032;2022-08-01T09:31:40;21.90;99.90
18613;DHT22;9436;52.152;21.032;2022-08-01T09:34:07;22.00;99.90
18613;DHT22;9436;52.152;21.032;2022-08-01T09:36:49;22.10;99.90
18613;DHT22;9436;52.152;21.032;2022-08-01T09:39:22;22.10;99.90
18613;DHT22;9436;52.152;21.032;2022-08-01T09:41:49;22.20;99.90
18613;DHT22;9436;52.152;21.032;2022-08-01T09:44:18;22.20;99.90
18613;DHT22;9436;52.152;21.032;2022-08-01T09:46:53;22.30;99.90
18613;DHT22;9436;52.152;21.032;2022-08-01T09:49:28;22.50;99.90
18613;DHT22;9436;52.152;21.032;2022-08-01T09:51:57;22.30;99.90
18613;DHT22;9436;52.152;21.032;2022-08-01T09:54:29;22.30;99.90
18613;DHT22;9436;52.152;21.032;2022-08-01T09:57:07;22.30;99.90
18613;DHT22;9436;52.152;21.032;2022-08-01T09:59:36;22.50;99.90
18613;DHT22;9436;52.152;21.032;2022-08-01T10:02:06;22.40;99.90
18613;DHT22;9436;52.152;21.032;2022-08-01T10:04:34;22.50;99.90
18613;DHT22;9436;52.152;21.032;2022-08-01T10:07:05;22.70;99.90
18613;DHT22;9436;52.152;21.032;2022-08-01T10:09:35;22.70;99.90
18613;DHT22;9436;52.152;21.032;2022-08-01T10:12:03;22.40;99.90
18613;DHT22;9436;52.152;21.032;2022-08-01T10:14:31;22.60;99.90
18613;DHT22;9436;52.152;21.032;2022-08-01T10:17:00;22.50;99.90
18613;DHT22;9436;52.152;21.032;2022-08-01T10:19:29;22.50;99.90
18613;DHT22;9436;52.152;21.032;2022-08-01T10:21:58;22.70;99.90
18613;DHT22;9436;52.152;21.032;2022-08-01T10:24:28;22.80;99.90
18613;DHT22;9436;52.152;21.032;2022-08-01T10:26:58;22.90;99.90
18613;DHT22;9436;52.152;21.032;2022-08-01T10:29:34;22.90;99.90
18613;DHT22;9436;52.152;21.032;2022-08-01T10:32:04;22.90;99.90
18613;DHT22;9436;52.152;21.032;2022-08-01T10:34:32;22.90;99.90
18613;DHT22;9436;52.152;21.032;2022-08-01T10:37:00;23.10;99.90
18613;DHT22;9436;52.152;21.032;2022-08-01T10:39:28;23.10;99.90
18613;DHT22;9436;52.152;21.032;2022-08-01T10:41:56;23.20;99.90
18613;DHT22;9436;52.152;21.032;2022-08-01T10:44:25;23.10;99.90
18613;DHT22;9436;52.152;21.032;2022-08-01T10:46:57;23.10;99.90
18613;DHT22;9436;52.152;21.032;2022-08-01T10:49:29;23.20;99.90
18613;DHT22;9436;52.152;21.032;2022-08-01T10:51:56;23.20;99.90
18613;DHT22;9436;52.152;21.032;2022-08-01T10:54:25;23.20;99.90
18613;DHT22;9436;52.152;21.032;2022-08-01T10:56:53;23.20;99.90
18613;DHT22;9436;52.152;21.032;2022-08-01T10:59:23;23.20;99.90
18613;DHT22;9436;52.152;21.032;2022-08-01T11:01:57;23.20;99.90
18613;DHT22;9436;52.152;21.032;2022-08-01T11:04:44;23.40;99.90
18613;DHT22;9436;52.152;21.032;2022-08-01T11:07:21;23.50;99.90
18613;DHT22;9436;52.152;21.032;2022-08-01T11:10:02;23.60;99.90
18613;DHT22;9436;52.152;21.032;2022-08-01T11:12:38;23.60;99.90
18613;DHT22;9436;52.152;21.032;2022-08-01T11:15:22;23.50;99.90
18613;DHT22;9436;52.152;21.032;2022-08-01T11:17:54;23.50;99.90
18613;DHT22;9436;52.152;21.032;2022-08-01T11:20:24;23.70;99.90
18613;DHT22;9436;52.152;21.032;2022-08-01T11:23:15;23.90;99.90
18613;DHT22;9436;52.152;21.032;2022-08-01T11:29:13;24.40;99.90
18613;DHT22;9436;52.152;21.032;2022-08-01T11:31:40;24.40;99.90
18613;DHT22;9436;52.152;21.032;2022-08-01T11:34:07;24.40;99.90
18613;DHT22;9436;52.152;21.032;2022-08-01T11:36:36;24.30;99.90
18613;DHT22;9436;52.152;21.032;2022-08-01T11:39:14;24.30;99.90
18613;DHT22;9436;52.152;21.032;2022-08-01T11:41:42;24.30;99.90
18613;DHT22;9436;52.152;21.032;2022-08-01T11:44:11;24.40;99.90
18613;DHT22;9436;52.152;21.032;2022-08-01T11:46:58;24.60;99.90
18613;DHT22;9436;52.152;21.032;2022-08-01T11:52:19;24.80;99.90
18613;DHT22;9436;52.152;21.032;2022-08-01T11:54:52;25.00;99.90
18613;DHT22;9436;52.152;21.032;2022-08-01T11:57:20;25.20;99.90
18613;DHT22;9436;52.152;21.032;2022-08-01T11:59:49;25.30;99.90
18613;DHT22;9436;52.152;21.032;2022-08-01T12:02:18;25.20;99.90
18613;DHT22;9436;52.152;21.032;2022-08-01T12:04:47;25.00;99.90
18613;DHT22;9436;52.152;21.032;2022-08-01T12:07:15;25.00;99.90
18613;DHT22;9436;52.152;21.032;2022-08-01T12:09:43;25.00;99.90
18613;DHT22;9436;52.152;21.032;2022-08-01T12:12:15;25.20;99.90
18613;DHT22;9436;52.152;21.032;2022-08-01T12:14:44;25.20;99.90
18613;DHT22;9436;52.152;21.032;2022-08-01T12:17:11;25.20;99.90
18613;DHT22;9436;52.152;21.032;2022-08-01T12:19:38;25.20;99.90
18613;DHT22;9436;52.152;21.032;2022-08-01T12:22:12;25.20;99.90
18613;DHT22;9436;52.152;21.032;2022-08-01T12:24:41;25.40;99.90
18613;DHT22;9436;52.152;21.032;2022-08-01T12:27:10;25.60;99.90
18613;DHT22;9436;52.152;21.032;2022-08-01T12:29:39;25.60;99.90
18613;DHT22;9436;52.152;21.032;2022-08-01T12:32:22;25.70;99.90
18613;DHT22;9436;52.152;21.032;2022-08-01T12:34:50;25.90;99.90
18613;DHT22;9436;52.152;21.032;2022-08-01T12:37:17;25.80;99.90
18613;DHT22;9436;52.152;21.032;2022-08-01T12:39:45;25.70;99.90
18613;DHT22;9436;52.152;21.032;2022-08-01T12:42:14;25.60;99.90
18613;DHT22;9436;52.152;21.032;2022-08-01T12:44:44;25.30;99.90
18613;DHT22;9436;52.152;21.032;2022-08-01T12:47:11;25.50;99.90
18613;DHT22;9436;52.152;21.032;2022-08-01T12:49:41;25.70;99.90
18613;DHT22;9436;52.152;21.032;2022-08-01T12:52:08;25.70;99.90
18613;DHT22;9436;52.152;21.032;2022-08-01T12:54:59;25.70;99.90
18613;DHT22;9436;52.152;21.032;2022-08-01T12:57:28;25.70;99.90
18613;DHT22;9436;52.152;21.032;2022-08-01T13:00:08;25.60;99.90
18613;DHT22;9436;52.152;21.032;2022-08-01T13:02:36;25.70;99.90
18613;DHT22;9436;52.152;21.032;2022-08-01T13:05:05;25.70;99.90
18613;DHT22;9436;52.152;21.032;2022-08-01T13:07:40;25.80;99.90
18613;DHT22;9436;52.152;21.032;2022-08-01T13:10:08;25.80;99.90
18613;DHT22;9436;52.152;21.032;2022-08-01T13:12:37;26.00;99.90
18613;DHT22;9436;52.152;21.032;2022-08-01T13:15:23;25.80;99.90
18613;DHT22;9436;52.152;21.032;2022-08-01T13:17:51;25.90;99.90
18613;DHT22;9436;52.152;21.032;2022-08-01T13:20:29;25.90;99.90
18613;DHT22;9436;52.152;21.032;2022-08-01T13:23:11;26.00;99.90
18613;DHT22;9436;52.152;21.032;2022-08-01T13:25:47;26.00;99.90
18613;DHT22;9436;52.152;21.032;2022-08-01T13:28:17;26.10;99.90
18613;DHT22;9436;52.152;21.032;2022-08-01T13:30:55;25.90;99.90
18613;DHT22;9436;52.152;21.032;2022-08-01T13:33:23;25.90;99.90
18613;DHT22;9436;52.152;21.032;2022-08-01T13:35:52;26.00;99.90
18613;DHT22;9436;52.152;21.032;2022-08-01T13:38:19;26.10;99.90
18613;DHT22;9436;52.152;21.032;2022-08-01T13:41:07;26.20;99.90
18613;DHT22;9436;52.152;21.032;2022-08-01T13:43:35;26.50;99.90
18613;DHT22;9436;52.152;21.032;2022-08-01T13:46:02;26.60;99.90
18613;DHT22;9436;52.152;21.032;2022-08-01T13:48:30;26.40;99.90
18613;DHT22;9436;52.152;21.032;2022-08-01T13:50:57;26.40;99.90
18613;DHT22;9436;52.152;21.032;2022-08-01T13:53:24;26.50;99.90
18613;DHT22;9436;52.152;21.032;2022-08-01T13:55:51;26.60;99.90
18613;DHT22;9436;52.152;21.032;2022-08-01T13:58:19;26.80;99.90
18613;DHT22;9436;52.152;21.032;2022-08-01T14:00:47;26.70;99.90
18613;DHT22;9436;52.152;21.032;2022-08-01T14:03:14;26.90;99.90
18613;DHT22;9436;52.152;21.032;2022-08-01T14:05:42;27.00;99.90
18613;DHT22;9436;52.152;21.032;2022-08-01T14:08:10;27.10;99.90
18613;DHT22;9436;52.152;21.032;2022-08-01T14:10:37;27.10;99.90
18613;DHT22;9436;52.152;21.032;2022-08-01T14:13:03;26.90;99.90
18613;DHT22;9436;52.152;21.032;2022-08-01T14:15:31;26.90;99.90
18613;DHT22;9436;52.152;21.032;2022-08-01T14:18:00;26.70;99.90
18613;DHT22;9436;52.152;21.032;2022-08-01T14:20:26;26.50;99.90
18613;DHT22;9436;52.152;21.032;2022-08-01T14:22:53;26.60;99.90
18613;DHT22;9436;52.152;21.032;2022-08-01T14:25:20;26.50;99.90
18613;DHT22;9436;52.152;21.032;2022-08-01T14:27:47;26.50;99.90
18613;DHT22;9436;52.152;21.032;2022-08-01T14:30:14;26.60;99.90
18613;DHT22;9436;52.152;21.032;2022-08-01T14:32:41;26.80;99.90
18613;DHT22;9436;52.152;21.032;2022-08-01T14:35:10;26.90;99.90
18613;DHT22;9436;52.152;21.032;2022-08-01T14:37:37;27.00;99.90
18613;DHT22;9436;52.152;21.032;2022-08-01T14:40:06;27.00;99.90
18613;DHT22;9436;52.152;21.032;2022-08-01T14:42:35;26.70;99.90
18613;DHT22;9436;52.152;21.032;2022-08-01T14:45:04;26.60;99.90
18613;DHT22;9436;52.152;21.032;2022-08-01T14:47:34;26.60;99.90
18613;DHT22;9436;52.152;21.032;2022-08-01T14:50:03;26.60;99.90
18613;DHT22;9436;52.152;21.032;2022-08-01T14:52:33;26.70;99.90
18613;DHT22;9436;52.152;21.032;2022-08-01T14:55:00;26.80;99.90
18613;DHT22;9436;52.152;21.032;2022-08-01T14:57:27;26.90;99.90
18613;DHT22;9436;52.152;21.032;2022-08-01T14:59:54;26.80;99.90
18613;DHT22;9436;52.152;21.032;2022-08-01T15:02:22;26.80;99.90
18613;DHT22;9436;52.152;21.032;2022-08-01T15:04:49;26.90;99.90
18613;DHT22;9436;52.152;21.032;2022-08-01T15:07:17;26.90;99.90
18613;DHT22;9436;52.152;21.032;2022-08-01T15:09:46;26.80;99.90
18613;DHT22;9436;52.152;21.032;2022-08-01T15:12:13;26.70;99.90
18613;DHT22;9436;52.152;21.032;2022-08-01T15:14:40;26.80;99.90
18613;DHT22;9436;52.152;21.032;2022-08-01T15:17:17;26.90;99.90
18613;DHT22;9436;52.152;21.032;2022-08-01T15:19:45;27.00;99.90
18613;DHT22;9436;52.152;21.032;2022-08-01T15:22:12;26.90;99.90
18613;DHT22;9436;52.152;21.032;2022-08-01T15:24:39;26.70;99.90
18613;DHT22;9436;52.152;21.032;2022-08-01T15:27:08;26.60;99.90
18613;DHT22;9436;52.152;21.032;2022-08-01T15:29:36;26.40;99.90
18613;DHT22;9436;52.152;21.032;2022-08-01T15:32:05;26.30;99.90
18613;DHT22;9436;52.152;21.032;2022-08-01T15:34:32;26.30;99.90
18613;DHT22;9436;52.152;21.032;2022-08-01T15:37:00;26.20;99.90
18613;DHT22;9436;52.152;21.032;2022-08-01T15:39:28;26.10;99.90
18613;DHT22;9436;52.152;21.032;2022-08-01T15:41:56;26.00;99.90
18613;DHT22;9436;52.152;21.032;2022-08-01T15:44:25;25.90;99.90
18613;DHT22;9436;52.152;21.032;2022-08-01T15:46:52;25.90;99.90
18613;DHT22;9436;52.152;21.032;2022-08-01T15:49:19;25.90;99.90